createdAt,value
2018-08-14T00:00:44.721Z,1.80
2018-08-14T00:03:15.083Z,2.40
2018-08-14T00:05:44.265Z,1.80
2018-08-14T00:08:13.305Z,1.40
2018-08-14T00:10:41.940Z,1.60
2018-08-14T00:13:12.027Z,1.60
2018-08-14T00:15:40.801Z,1.50
2018-08-14T00:18:09.857Z,1.53
2018-08-14T00:20:38.481Z,1.40
2018-08-14T00:23:07.100Z,1.90
2018-08-14T00:25:35.724Z,1.60
2018-08-14T00:28:05.627Z,1.50
2018-08-14T00:30:34.500Z,1.90
2018-08-14T00:33:03.106Z,1.20
2018-08-14T00:35:31.828Z,1.60
2018-08-14T00:38:00.439Z,1.50
2018-08-14T00:40:30.183Z,1.50
2018-08-14T00:43:00.589Z,1.40
2018-08-14T00:45:29.234Z,1.83
2018-08-14T00:47:57.872Z,1.60
2018-08-14T00:50:26.478Z,1.73
2018-08-14T00:52:55.019Z,1.60
2018-08-14T00:55:24.132Z,1.40
2018-08-14T00:57:52.896Z,1.67
2018-08-14T01:00:36.658Z,1.63
2018-08-14T01:03:05.579Z,1.20
2018-08-14T01:05:34.251Z,1.40
2018-08-14T01:08:02.831Z,1.30
2018-08-14T01:10:31.501Z,1.40
2018-08-14T01:13:00.063Z,1.87
2018-08-14T01:15:29.656Z,1.43
2018-08-14T01:17:58.797Z,1.50
2018-08-14T01:20:30.420Z,1.70
2018-08-14T01:22:59.060Z,1.87
2018-08-14T01:25:27.588Z,1.87
2018-08-14T01:27:56.245Z,1.70
2018-08-14T01:30:26.224Z,1.43
2018-08-14T01:32:54.862Z,1.27
2018-08-14T01:35:23.476Z,1.17
2018-08-14T01:37:52.074Z,1.53
2018-08-14T01:40:20.666Z,1.57
2018-08-14T01:42:49.996Z,1.77
2018-08-14T01:45:18.868Z,1.47
2018-08-14T01:47:47.854Z,1.90
2018-08-14T01:50:23.911Z,1.40
2018-08-14T01:52:52.831Z,1.70
2018-08-14T01:55:22.751Z,1.60
2018-08-14T01:57:52.768Z,1.47
2018-08-14T02:00:23.216Z,1.60
2018-08-14T02:02:52.332Z,1.70
2018-08-14T02:05:21.199Z,1.40
2018-08-14T02:07:50.012Z,1.60
2018-08-14T02:10:20.165Z,1.50
2018-08-14T02:12:49.315Z,1.83
2018-08-14T02:15:18.924Z,1.40
2018-08-14T02:17:47.579Z,1.70
2018-08-14T02:20:18.524Z,1.57
2018-08-14T02:22:47.832Z,1.63
2018-08-14T02:25:16.509Z,1.60
2018-08-14T02:27:45.544Z,1.50
2018-08-14T02:30:15.032Z,1.30
2018-08-14T02:32:43.767Z,1.50
2018-08-14T02:35:12.797Z,1.37
2018-08-14T02:37:41.459Z,1.60
2018-08-14T02:40:13.568Z,1.80
2018-08-14T02:42:42.151Z,1.40
2018-08-14T02:45:11.332Z,1.40
2018-08-14T02:47:40.477Z,1.30
2018-08-14T02:50:09.860Z,1.50
2018-08-14T02:52:38.871Z,1.60
2018-08-14T02:55:09.145Z,1.60
2018-08-14T02:57:37.872Z,1.53
2018-08-14T03:00:11.149Z,1.87
2018-08-14T03:02:40.314Z,1.27
2018-08-14T03:05:09.074Z,1.60
2018-08-14T03:07:37.672Z,1.67
2018-08-14T03:10:08.157Z,2.10
2018-08-14T03:12:36.868Z,2.03
2018-08-14T03:15:06.159Z,1.90
2018-08-14T03:17:34.825Z,1.60
2018-08-14T03:20:03.613Z,2.07
2018-08-14T03:22:32.234Z,1.80
2018-08-14T03:25:00.902Z,1.70
2018-08-14T03:27:29.475Z,1.80
2018-08-14T03:29:58.168Z,1.77
2018-08-14T03:32:26.687Z,1.67
2018-08-14T03:34:55.297Z,1.57
2018-08-14T03:37:24.163Z,1.93
2018-08-14T03:39:53.004Z,1.60
2018-08-14T03:42:21.928Z,1.77
2018-08-14T03:44:50.819Z,1.80
2018-08-14T03:47:19.652Z,1.40
2018-08-14T03:49:48.481Z,1.70
2018-08-14T03:52:17.383Z,1.53
2018-08-14T03:54:46.212Z,1.83
2018-08-14T03:57:15.060Z,2.00
2018-08-14T03:59:43.642Z,1.53
2018-08-14T04:02:12.331Z,1.77
2018-08-14T04:04:40.907Z,1.70
2018-08-14T04:07:09.468Z,3.80
2018-08-14T04:09:38.191Z,2.23
2018-08-14T04:12:06.804Z,2.60
2018-08-14T04:14:35.379Z,4.13
2018-08-14T04:17:03.951Z,3.53
2018-08-14T04:19:32.588Z,2.07
2018-08-14T04:22:01.099Z,3.67
2018-08-14T04:24:29.692Z,3.33
2018-08-14T04:26:58.272Z,3.93
2018-08-14T04:29:26.962Z,3.00
2018-08-14T04:31:55.516Z,2.37
2018-08-14T04:34:24.165Z,2.40
2018-08-14T04:36:52.725Z,3.37
2018-08-14T04:39:21.312Z,2.10
2018-08-14T04:41:49.924Z,2.23
2018-08-14T04:44:18.503Z,2.13
2018-08-14T04:46:47.096Z,2.20
2018-08-14T04:49:15.664Z,2.20
2018-08-14T04:51:44.250Z,1.60
2018-08-14T04:54:12.816Z,2.00
2018-08-14T04:56:41.677Z,3.97
2018-08-14T04:59:10.313Z,2.93
2018-08-14T05:01:39.215Z,2.33
2018-08-14T05:04:08.107Z,2.63
2018-08-14T05:06:36.974Z,2.10
2018-08-14T05:09:09.404Z,2.57
2018-08-14T05:11:38.428Z,2.00
2018-08-14T05:14:07.293Z,1.90
2018-08-14T05:16:36.220Z,1.60
2018-08-14T05:19:05.072Z,1.90
2018-08-14T05:21:34.110Z,1.90
2018-08-14T05:24:03.019Z,2.37
2018-08-14T05:26:31.879Z,2.27
2018-08-14T05:29:00.645Z,2.17
2018-08-14T05:31:29.588Z,2.30
2018-08-14T05:33:58.462Z,4.57
2018-08-14T05:36:27.347Z,6.17
2018-08-14T05:38:56.188Z,6.87
2018-08-14T05:41:25.132Z,7.60
2018-08-14T05:43:54.016Z,7.87
2018-08-14T05:46:22.702Z,7.63
2018-08-14T05:48:51.321Z,7.17
2018-08-14T05:51:19.941Z,7.20
2018-08-14T05:53:48.544Z,7.00
2018-08-14T05:56:17.473Z,6.90
2018-08-14T05:58:46.406Z,6.70
2018-08-14T06:01:15.580Z,6.97
2018-08-14T06:03:44.428Z,7.00
2018-08-14T06:06:13.388Z,7.43
2018-08-14T06:08:42.338Z,6.40
2018-08-14T06:11:11.159Z,6.60
2018-08-14T06:13:40.026Z,6.90
2018-08-14T06:16:08.940Z,7.43
2018-08-14T06:18:37.667Z,8.07
2018-08-14T06:21:07.043Z,8.37
2018-08-14T06:23:35.670Z,8.03
2018-08-14T06:26:04.286Z,7.93
2018-08-14T06:28:32.978Z,7.17
2018-08-14T06:31:01.612Z,7.27
2018-08-14T06:33:30.223Z,6.73
2018-08-14T06:35:58.752Z,7.43
2018-08-14T06:38:27.349Z,6.60
2018-08-14T06:40:55.876Z,6.73
2018-08-14T06:43:24.501Z,6.83
2018-08-14T06:45:53.063Z,7.17
2018-08-14T06:48:21.738Z,6.77
2018-08-14T06:50:50.311Z,6.27
2018-08-14T06:53:18.910Z,6.53
2018-08-14T06:55:47.487Z,7.00
2018-08-14T06:58:16.098Z,6.10
2018-08-14T07:00:44.657Z,6.13
2018-08-14T07:03:13.275Z,6.93
2018-08-14T07:05:41.794Z,5.70
2018-08-14T07:08:10.454Z,5.83
2018-08-14T07:10:39.105Z,5.70
2018-08-14T07:13:07.715Z,4.97
2018-08-14T07:15:36.284Z,4.73
2018-08-14T07:18:05.207Z,4.60
2018-08-14T07:20:33.844Z,4.00
2018-08-14T07:23:02.448Z,4.27
2018-08-14T07:25:30.992Z,3.50
2018-08-14T07:27:59.641Z,3.40
2018-08-14T07:30:28.261Z,3.20
2018-08-14T07:32:57.125Z,3.30
2018-08-14T07:35:26.018Z,3.50
2018-08-14T07:37:54.883Z,3.33
2018-08-14T07:40:23.700Z,3.20
2018-08-14T07:42:52.527Z,3.10
2018-08-14T07:45:21.180Z,3.00
2018-08-14T07:47:49.791Z,2.90
2018-08-14T07:50:18.368Z,3.27
2018-08-14T07:52:46.963Z,2.77
2018-08-14T07:55:15.552Z,3.17
2018-08-14T07:57:44.180Z,2.47
2018-08-14T08:00:18.770Z,2.70
2018-08-14T08:02:48.237Z,2.70
2018-08-14T08:05:17.186Z,2.93
2018-08-14T08:07:45.768Z,2.90
2018-08-14T08:10:15.352Z,2.83
2018-08-14T08:12:43.986Z,2.47
2018-08-14T08:15:14.364Z,2.70
2018-08-14T08:17:43.962Z,2.70
2018-08-14T08:20:30.115Z,2.63
2018-08-14T08:22:59.335Z,2.63
2018-08-14T08:25:29.134Z,2.73
2018-08-14T08:27:58.812Z,2.60
2018-08-14T08:30:28.113Z,2.40
2018-08-14T08:32:56.905Z,2.17
2018-08-14T08:35:26.717Z,2.33
2018-08-14T08:37:55.581Z,2.30
2018-08-14T08:40:24.254Z,2.10
2018-08-14T08:42:52.847Z,2.50
2018-08-14T08:45:21.520Z,2.80
2018-08-14T08:47:50.508Z,2.30
2018-08-14T08:50:19.075Z,2.50
2018-08-14T08:52:47.705Z,2.40
2018-08-14T08:55:18.226Z,2.37
2018-08-14T08:57:46.798Z,2.53
2018-08-14T09:00:16.727Z,2.10
2018-08-14T09:02:45.313Z,2.63
2018-08-14T09:05:16.168Z,2.10
2018-08-14T09:07:44.817Z,2.07
2018-08-14T09:10:13.419Z,2.30
2018-08-14T09:12:42.684Z,1.87
2018-08-14T09:15:12.036Z,2.20
2018-08-14T09:17:41.991Z,2.43
2018-08-14T09:20:12.239Z,2.03
2018-08-14T09:22:40.900Z,2.57
2018-08-14T09:25:12.079Z,2.07
2018-08-14T09:27:41.356Z,2.07
2018-08-14T09:30:12.882Z,2.50
2018-08-14T09:32:41.871Z,2.23
2018-08-14T09:35:11.577Z,2.00
2018-08-14T09:37:40.723Z,2.67
2018-08-14T09:40:11.907Z,2.33
2018-08-14T09:42:40.644Z,2.67
2018-08-14T09:45:09.741Z,2.50
2018-08-14T09:47:38.444Z,2.23
2018-08-14T09:50:12.457Z,2.40
2018-08-14T09:52:41.138Z,2.43
2018-08-14T09:55:09.807Z,2.37
2018-08-14T09:57:38.504Z,2.30
2018-08-14T10:00:22.708Z,2.43
2018-08-14T10:02:55.580Z,2.60
2018-08-14T10:05:29.516Z,2.30
2018-08-14T10:08:03.460Z,2.60
2018-08-14T10:10:32.090Z,2.67
2018-08-14T10:13:00.769Z,2.30
2018-08-14T10:15:29.404Z,2.10
2018-08-14T10:17:58.394Z,2.33
2018-08-14T10:20:27.065Z,1.73
2018-08-14T10:22:55.659Z,1.83
2018-08-14T10:25:24.337Z,2.20
2018-08-14T10:27:53.005Z,2.20
2018-08-14T10:30:21.697Z,2.30
2018-08-14T10:32:50.296Z,2.50
2018-08-14T10:35:18.943Z,2.50
2018-08-14T10:37:47.607Z,2.33
2018-08-14T10:40:16.368Z,2.03
2018-08-14T10:42:45.365Z,2.03
2018-08-14T10:45:16.648Z,2.53
2018-08-14T10:47:46.315Z,2.43
2018-08-14T10:50:17.630Z,2.50
2018-08-14T10:52:47.321Z,2.23
2018-08-14T10:55:16.656Z,2.33
2018-08-14T10:57:46.188Z,2.20
2018-08-14T11:00:17.628Z,2.50
2018-08-14T11:02:46.593Z,2.30
2018-08-14T11:05:16.502Z,2.63
2018-08-14T11:07:46.237Z,2.80
2018-08-14T11:10:16.901Z,2.80
2018-08-14T11:12:45.870Z,2.50
2018-08-14T11:15:15.677Z,2.50
2018-08-14T11:17:45.026Z,2.70
2018-08-14T11:20:17.812Z,3.30
2018-08-14T11:22:47.573Z,3.10
2018-08-14T11:25:16.913Z,3.20
2018-08-14T11:27:45.961Z,3.03
2018-08-14T11:30:21.763Z,3.70
2018-08-14T11:32:50.950Z,3.80
2018-08-14T11:35:23.536Z,3.10
2018-08-14T11:37:52.672Z,3.13
2018-08-14T11:40:21.476Z,3.20
2018-08-14T11:42:50.404Z,3.20
2018-08-14T11:45:21.365Z,3.87
2018-08-14T11:47:49.955Z,3.83
2018-08-14T11:50:19.415Z,3.60
2018-08-14T11:52:49.463Z,3.30
2018-08-14T11:55:19.232Z,3.57
2018-08-14T11:57:48.687Z,3.57
2018-08-14T12:00:25.630Z,3.53
2018-08-14T12:02:56.555Z,3.60
2018-08-14T12:05:25.457Z,3.73
2018-08-14T12:07:54.065Z,3.87
2018-08-14T12:10:23.107Z,3.47
2018-08-14T12:12:52.020Z,3.60
2018-08-14T12:15:20.624Z,3.00
2018-08-14T12:17:49.277Z,3.43
2018-08-14T12:20:19.418Z,3.30
2018-08-14T12:22:48.010Z,2.87
2018-08-14T12:25:17.799Z,2.87
2018-08-14T12:27:47.474Z,7.37
2018-08-14T12:30:18.420Z,4.17
2018-08-14T12:32:47.792Z,3.93
2018-08-14T12:35:16.450Z,4.10
2018-08-14T12:37:45.113Z,4.53
2018-08-14T12:40:14.595Z,3.90
2018-08-14T12:42:43.204Z,4.57
2018-08-14T12:45:21.296Z,4.00
2018-08-14T12:47:50.632Z,3.97
2018-08-14T12:50:20.020Z,4.03
2018-08-14T12:52:48.859Z,3.60
2018-08-14T12:55:17.905Z,4.10
2018-08-14T12:57:47.277Z,3.60
2018-08-14T13:00:19.212Z,3.67
2018-08-14T13:02:48.116Z,3.50
2018-08-14T13:05:16.761Z,3.07
2018-08-14T13:07:45.424Z,3.87
2018-08-14T13:10:14.042Z,3.67
2018-08-14T13:12:43.147Z,3.63
2018-08-14T13:15:13.256Z,3.60
2018-08-14T13:17:43.063Z,4.03
2018-08-14T13:20:12.888Z,3.43
2018-08-14T13:22:41.494Z,3.17
2018-08-14T13:25:11.179Z,3.77
2018-08-14T13:27:39.797Z,3.60
2018-08-14T13:30:11.436Z,3.63
2018-08-14T13:32:40.032Z,4.17
2018-08-14T13:35:08.673Z,3.63
2018-08-14T13:37:37.333Z,4.00
2018-08-14T13:40:06.882Z,3.53
2018-08-14T13:42:35.424Z,3.23
2018-08-14T13:45:04.660Z,3.90
2018-08-14T13:47:33.218Z,3.30
2018-08-14T13:50:01.915Z,3.00
2018-08-14T13:52:30.483Z,3.00
2018-08-14T13:54:59.086Z,3.17
2018-08-14T13:57:27.663Z,3.30
2018-08-14T13:59:56.281Z,2.77
2018-08-14T14:02:24.835Z,3.47
2018-08-14T14:04:53.452Z,3.13
2018-08-14T14:07:22.065Z,3.03
2018-08-14T14:09:50.622Z,3.53
2018-08-14T14:12:19.208Z,3.10
2018-08-14T14:14:47.781Z,3.20
2018-08-14T14:17:16.329Z,3.60
2018-08-14T14:19:44.956Z,3.17
2018-08-14T14:22:13.528Z,3.07
2018-08-14T14:24:42.098Z,2.93
2018-08-14T14:27:10.681Z,2.80
2018-08-14T14:29:39.269Z,2.60
2018-08-14T14:32:07.984Z,2.47
2018-08-14T14:34:36.604Z,2.80
2018-08-14T14:37:05.532Z,2.90
2018-08-14T14:39:34.167Z,2.80
2018-08-14T14:42:02.868Z,2.53
2018-08-14T14:44:31.551Z,2.30
2018-08-14T14:47:00.190Z,2.47
2018-08-14T14:49:28.851Z,2.43
2018-08-14T14:51:57.456Z,2.30
2018-08-14T14:54:26.141Z,2.43
2018-08-14T14:56:54.739Z,2.23
2018-08-14T14:59:23.345Z,2.10
2018-08-14T15:01:52.015Z,2.00
2018-08-14T15:04:20.631Z,2.80
2018-08-14T15:06:49.217Z,2.43
2018-08-14T15:09:17.864Z,2.60
2018-08-14T15:11:46.494Z,2.77
2018-08-14T15:14:15.120Z,2.70
2018-08-14T15:16:43.701Z,2.50
2018-08-14T15:19:18.200Z,2.90
2018-08-14T15:21:47.179Z,2.20
2018-08-14T15:24:16.097Z,2.00
2018-08-14T15:26:44.980Z,2.30
2018-08-14T15:29:15.421Z,2.07
2018-08-14T15:31:48.858Z,2.20
2018-08-14T15:34:21.241Z,2.30
2018-08-14T15:36:52.119Z,2.20
2018-08-14T15:39:21.413Z,2.30
2018-08-14T15:41:50.134Z,2.50
2018-08-14T15:44:18.756Z,2.43
2018-08-14T15:46:47.443Z,2.13
2018-08-14T15:49:16.139Z,2.77
2018-08-14T15:51:44.812Z,2.37
2018-08-14T15:54:14.229Z,2.53
2018-08-14T15:56:43.281Z,1.97
2018-08-14T15:59:12.213Z,2.30
2018-08-14T16:01:40.835Z,2.17
2018-08-14T16:04:10.687Z,1.90
2018-08-14T16:06:39.730Z,2.50
2018-08-14T16:09:13.836Z,2.00
2018-08-14T16:11:43.026Z,2.50
2018-08-14T16:14:12.213Z,2.40
2018-08-14T16:16:41.001Z,2.33
2018-08-14T16:19:10.934Z,2.00
2018-08-14T16:21:39.762Z,2.37
2018-08-14T16:24:08.744Z,2.00
2018-08-14T16:26:37.395Z,2.50
2018-08-14T16:29:06.440Z,2.20
2018-08-14T16:31:35.121Z,2.30
2018-08-14T16:34:03.827Z,2.53
2018-08-14T16:36:32.448Z,2.10
2018-08-14T16:39:01.029Z,2.40
2018-08-14T16:41:29.624Z,2.10
2018-08-14T16:43:58.272Z,2.47
2018-08-14T16:46:26.898Z,2.63
2018-08-14T16:48:55.456Z,2.10
2018-08-14T16:51:24.025Z,2.57
2018-08-14T16:53:52.617Z,2.00
2018-08-14T16:56:21.202Z,2.17
2018-08-14T16:58:49.784Z,2.40
2018-08-14T17:01:18.360Z,2.33
2018-08-14T17:03:46.941Z,2.27
2018-08-14T17:06:16.899Z,2.57
2018-08-14T17:08:45.870Z,2.40
2018-08-14T17:11:14.829Z,2.17
2018-08-14T17:13:43.686Z,2.73
2018-08-14T17:16:12.428Z,2.20
2018-08-14T17:18:41.052Z,2.50
2018-08-14T17:21:08.449Z,2.60
2018-08-14T17:23:37.004Z,2.67
2018-08-14T17:26:05.664Z,3.00
2018-08-14T17:28:34.248Z,3.37
2018-08-14T17:31:02.911Z,4.10
2018-08-14T17:33:31.610Z,3.33
2018-08-14T17:36:00.246Z,2.90
2018-08-14T17:38:28.988Z,3.43
2018-08-14T17:40:57.612Z,2.67
2018-08-14T17:43:26.376Z,3.00
2018-08-14T17:45:55.044Z,2.83
2018-08-14T17:48:23.769Z,4.73
2018-08-14T17:50:52.512Z,3.40
2018-08-14T17:53:21.091Z,3.10
2018-08-14T17:55:49.667Z,2.80
2018-08-14T17:58:18.387Z,3.00
2018-08-14T18:00:47.015Z,3.50
2018-08-14T18:03:15.685Z,2.90
2018-08-14T18:05:44.281Z,3.20
2018-08-14T18:08:12.996Z,3.20
2018-08-14T18:10:41.660Z,3.00
2018-08-14T18:13:10.359Z,3.20
2018-08-14T18:15:38.966Z,2.70
2018-08-14T18:18:07.684Z,3.00
2018-08-14T18:20:36.279Z,2.97
2018-08-14T18:23:04.975Z,3.03
2018-08-14T18:25:33.556Z,3.30
2018-08-14T18:28:02.201Z,2.90
2018-08-14T18:30:30.793Z,3.47
2018-08-14T18:32:59.392Z,3.50
2018-08-14T18:35:27.959Z,3.73
2018-08-14T18:37:56.547Z,3.30
2018-08-14T18:40:25.104Z,3.17
2018-08-14T18:42:53.732Z,3.40
2018-08-14T18:45:22.711Z,3.17
2018-08-14T18:47:51.290Z,3.90
2018-08-14T18:50:20.208Z,3.90
2018-08-14T18:52:48.852Z,3.50
2018-08-14T18:55:18.831Z,3.67
2018-08-14T18:57:48.468Z,3.90
2018-08-14T19:00:23.533Z,4.13
2018-08-14T19:02:53.034Z,5.30
2018-08-14T19:05:22.358Z,5.23
2018-08-14T19:07:50.968Z,4.80
2018-08-14T19:10:21.127Z,5.10
2018-08-14T19:12:50.534Z,4.77
2018-08-14T19:15:24.143Z,4.30
2018-08-14T19:17:52.747Z,3.57
2018-08-14T19:20:21.358Z,7.70
2018-08-14T19:22:49.932Z,5.40
2018-08-14T19:25:18.584Z,3.87
2018-08-14T19:27:47.195Z,3.90
2018-08-14T19:30:15.956Z,3.73
2018-08-14T19:32:44.620Z,4.20
2018-08-14T19:35:14.576Z,4.20
2018-08-14T19:37:43.205Z,3.87
2018-08-14T19:40:14.282Z,3.90
2018-08-14T19:42:42.949Z,4.20
2018-08-14T19:45:11.855Z,7.10
2018-08-14T19:47:41.048Z,4.30
2018-08-14T19:50:10.831Z,4.27
2018-08-14T19:52:39.479Z,4.03
2018-08-14T19:55:12.857Z,4.00
2018-08-14T19:57:43.144Z,4.17
2018-08-14T20:00:13.531Z,4.03
2018-08-14T20:02:42.670Z,4.20
2018-08-14T20:05:13.360Z,4.10
2018-08-14T20:07:42.054Z,4.37
2018-08-14T20:10:11.988Z,3.70
2018-08-14T20:12:40.665Z,3.70
2018-08-14T20:15:12.939Z,4.10
2018-08-14T20:17:42.083Z,4.00
2018-08-14T20:20:16.559Z,3.97
2018-08-14T20:22:45.603Z,4.10
2018-08-14T20:25:14.577Z,4.07
2018-08-14T20:27:43.548Z,4.30
2018-08-14T20:30:15.837Z,3.97
2018-08-14T20:32:44.752Z,3.97
2018-08-14T20:35:14.749Z,3.80
2018-08-14T20:37:44.379Z,4.03
2018-08-14T20:40:16.291Z,4.27
2018-08-14T20:42:44.987Z,4.10
2018-08-14T20:45:14.189Z,4.20
2018-08-14T20:47:43.356Z,4.27
2018-08-14T20:50:14.401Z,4.43
2018-08-14T20:52:43.448Z,3.93
2018-08-14T20:55:12.689Z,4.33
2018-08-14T20:57:42.262Z,4.10
2018-08-14T21:00:14.311Z,4.00
2018-08-14T21:02:42.997Z,4.43
2018-08-14T21:05:11.671Z,4.33
2018-08-14T21:07:40.346Z,4.33
2018-08-14T21:10:09.368Z,3.93
2018-08-14T21:12:39.748Z,4.20
2018-08-14T21:15:10.560Z,4.03
2018-08-14T21:17:39.727Z,4.10
2018-08-14T21:20:09.536Z,4.23
2018-08-14T21:22:38.179Z,4.23
2018-08-14T21:25:07.513Z,4.47
2018-08-14T21:27:36.944Z,4.23
2018-08-14T21:30:07.702Z,4.23
2018-08-14T21:32:36.262Z,4.43
2018-08-14T21:35:06.531Z,4.33
2018-08-14T21:37:35.194Z,4.47
2018-08-14T21:40:03.924Z,4.50
2018-08-14T21:42:32.504Z,4.27
2018-08-14T21:45:01.084Z,4.63
2018-08-14T21:47:29.849Z,4.33
2018-08-14T21:49:58.744Z,4.63
2018-08-14T21:52:27.656Z,4.43
2018-08-14T21:54:56.205Z,4.30
2018-08-14T21:57:24.767Z,3.97
2018-08-14T21:59:53.415Z,4.27
2018-08-14T22:02:22.016Z,5.30
2018-08-14T22:04:50.699Z,4.63
2018-08-14T22:07:19.261Z,4.40
2018-08-14T22:09:47.905Z,4.30
2018-08-14T22:12:16.529Z,4.37
2018-08-14T22:14:45.136Z,4.00
2018-08-14T22:17:13.910Z,4.40
2018-08-14T22:19:42.901Z,4.27
2018-08-14T22:22:11.812Z,4.17
2018-08-14T22:24:40.695Z,4.30
2018-08-14T22:27:09.656Z,4.30
2018-08-14T22:29:38.252Z,4.50
2018-08-14T22:32:06.835Z,4.00
2018-08-14T22:34:35.444Z,4.07
2018-08-14T22:37:04.008Z,4.20
2018-08-14T22:39:32.620Z,4.90
2018-08-14T22:42:01.200Z,5.30
2018-08-14T22:44:29.801Z,4.70
2018-08-14T22:46:58.410Z,4.57
2018-08-14T22:49:27.224Z,4.00
2018-08-14T22:51:56.096Z,3.97
2018-08-14T22:54:24.983Z,4.40
2018-08-14T22:56:53.891Z,3.53
2018-08-14T22:59:22.727Z,4.17
2018-08-14T23:01:51.559Z,3.33
2018-08-14T23:04:20.344Z,4.47
2018-08-14T23:06:49.164Z,4.50
2018-08-14T23:09:17.985Z,4.00
2018-08-14T23:11:46.898Z,3.90
2018-08-14T23:14:15.656Z,4.47
2018-08-14T23:16:44.267Z,3.60
2018-08-14T23:19:12.857Z,4.27
2018-08-14T23:21:41.446Z,3.67
2018-08-14T23:24:10.124Z,4.30
2018-08-14T23:26:38.757Z,4.10
2018-08-14T23:29:07.343Z,4.17
2018-08-14T23:31:35.955Z,3.97
2018-08-14T23:34:04.614Z,4.27
2018-08-14T23:36:33.237Z,4.47
2018-08-14T23:39:01.889Z,3.80
2018-08-14T23:41:30.557Z,3.90
2018-08-14T23:43:59.167Z,3.80
2018-08-14T23:46:27.992Z,4.10
2018-08-14T23:48:56.976Z,4.23
2018-08-14T23:51:26.610Z,3.83
2018-08-14T23:53:55.564Z,3.83
2018-08-14T23:56:24.539Z,3.80
2018-08-14T23:58:53.414Z,4.03
